createdAt,value
2023-03-16T00:00:53.342Z,60.29
2023-03-16T00:03:21.021Z,60.38
2023-03-16T00:05:51.127Z,60.52
2023-03-16T00:08:22.019Z,60.53
2023-03-16T00:10:49.137Z,60.72
2023-03-16T00:13:19.039Z,61.08
2023-03-16T00:16:00.965Z,60.90
2023-03-16T00:18:29.388Z,60.76
2023-03-16T00:21:05.854Z,60.80
2023-03-16T00:23:35.910Z,60.80
2023-03-16T00:26:07.944Z,60.92
2023-03-16T00:28:36.019Z,60.82
2023-03-16T00:31:08.790Z,61.10
2023-03-16T00:33:35.747Z,61.20
2023-03-16T00:36:11.494Z,60.88
2023-03-16T00:38:46.777Z,61.67
2023-03-16T00:41:15.844Z,61.38
2023-03-16T00:43:44.854Z,61.46
2023-03-16T00:46:15.981Z,61.58
2023-03-16T00:48:46.500Z,61.69
2023-03-16T00:51:17.616Z,61.58
2023-03-16T00:53:47.008Z,62.03
2023-03-16T00:56:14.224Z,62.57
2023-03-16T00:58:43.412Z,61.94
2023-03-16T01:01:18.966Z,62.03
2023-03-16T01:03:47.281Z,61.99
2023-03-16T01:06:17.262Z,61.95
2023-03-16T01:08:44.730Z,61.60
2023-03-16T01:11:16.799Z,62.05
2023-03-16T01:13:47.086Z,61.98
2023-03-16T01:16:15.582Z,61.80
2023-03-16T01:18:42.677Z,62.16
2023-03-16T01:21:13.931Z,61.97
2023-03-16T01:23:41.219Z,62.02
2023-03-16T01:26:08.446Z,61.61
2023-03-16T01:28:35.922Z,61.76
2023-03-16T01:31:09.711Z,62.28
2023-03-16T01:33:37.988Z,62.18
2023-03-16T01:36:15.362Z,61.78
2023-03-16T01:39:02.629Z,61.56
2023-03-16T01:41:36.686Z,62.51
2023-03-16T01:44:04.714Z,61.64
2023-03-16T01:46:32.750Z,61.57
2023-03-16T01:49:15.373Z,61.16
2023-03-16T01:52:03.010Z,61.46
2023-03-16T01:54:52.394Z,61.39
2023-03-16T01:57:30.694Z,61.78
2023-03-16T02:00:10.672Z,61.66
2023-03-16T02:02:55.849Z,61.35
2023-03-16T02:05:44.012Z,61.54
2023-03-16T02:08:15.018Z,62.45
2023-03-16T02:10:42.804Z,62.00
2023-03-16T02:13:09.864Z,61.84
2023-03-16T02:15:39.123Z,61.92
2023-03-16T02:18:09.084Z,61.83
2023-03-16T02:21:15.713Z,61.68
2023-03-16T02:23:44.430Z,62.90
2023-03-16T02:26:34.702Z,62.36
2023-03-16T02:30:07.892Z,62.39
2023-03-16T02:32:44.681Z,63.13
2023-03-16T02:35:13.042Z,62.72
2023-03-16T02:37:42.013Z,62.37
2023-03-16T02:40:28.999Z,62.15
2023-03-16T02:43:07.113Z,63.26
2023-03-16T02:45:59.038Z,63.10
2023-03-16T02:48:45.455Z,63.14
2023-03-16T02:51:12.741Z,62.93
2023-03-16T02:53:39.874Z,62.84
2023-03-16T02:56:07.822Z,63.42
2023-03-16T02:58:37.870Z,62.73
2023-03-16T03:01:10.320Z,63.43
2023-03-16T03:03:38.798Z,62.46
2023-03-16T03:06:06.650Z,63.29
2023-03-16T03:08:36.710Z,63.19
2023-03-16T03:11:04.088Z,62.85
2023-03-16T03:13:31.729Z,63.15
2023-03-16T03:15:59.136Z,63.79
2023-03-16T03:18:28.325Z,63.03
2023-03-16T03:20:55.437Z,63.63
2023-03-16T03:23:22.605Z,63.08
2023-03-16T03:25:49.635Z,63.14
2023-03-16T03:28:18.145Z,63.11
2023-03-16T03:30:45.888Z,62.87
2023-03-16T03:33:13.052Z,63.68
2023-03-16T03:35:42.266Z,63.18
2023-03-16T03:38:11.625Z,62.76
2023-03-16T03:40:40.333Z,63.29
2023-03-16T03:43:07.272Z,62.98
2023-03-16T03:45:39.097Z,63.10
2023-03-16T03:48:06.661Z,63.48
2023-03-16T03:50:34.253Z,63.47
2023-03-16T03:53:37.299Z,63.24
2023-03-16T03:56:26.469Z,63.28
2023-03-16T03:58:53.813Z,64.06
2023-03-16T04:01:33.847Z,63.06
2023-03-16T04:04:01.072Z,63.62
2023-03-16T04:06:28.458Z,63.67
2023-03-16T04:08:55.656Z,63.95
2023-03-16T04:11:26.744Z,63.99
2023-03-16T04:13:53.721Z,63.92
2023-03-16T04:16:22.222Z,64.24
2023-03-16T04:18:54.625Z,63.59
2023-03-16T04:21:23.403Z,64.19
2023-03-16T04:23:54.300Z,64.11
2023-03-16T04:26:25.709Z,64.02
2023-03-16T04:28:53.893Z,64.23
2023-03-16T04:31:21.357Z,64.38
2023-03-16T04:33:49.437Z,64.53
2023-03-16T04:36:16.880Z,64.14
2023-03-16T04:38:45.022Z,65.12
2023-03-16T04:41:13.008Z,64.52
2023-03-16T04:43:48.726Z,65.02
2023-03-16T04:46:21.627Z,64.38
2023-03-16T04:48:48.949Z,65.42
2023-03-16T04:51:16.158Z,65.27
2023-03-16T04:53:57.889Z,64.81
2023-03-16T04:56:31.831Z,64.73
2023-03-16T04:59:03.816Z,64.72
2023-03-16T05:01:40.321Z,65.04
2023-03-16T05:04:08.146Z,64.29
2023-03-16T05:06:37.791Z,64.42
2023-03-16T05:09:08.072Z,64.96
2023-03-16T05:11:37.791Z,65.23
2023-03-16T05:14:08.106Z,65.09
2023-03-16T05:16:45.889Z,65.24
2023-03-16T05:19:13.324Z,65.19
2023-03-16T05:21:40.427Z,66.51
2023-03-16T05:24:09.214Z,66.56
2023-03-16T05:26:36.649Z,66.63
2023-03-16T05:29:06.115Z,67.04
2023-03-16T05:31:33.680Z,67.70
2023-03-16T05:34:03.531Z,67.14
2023-03-16T05:36:30.616Z,67.12
2023-03-16T05:39:05.490Z,66.59
2023-03-16T05:41:37.133Z,67.25
2023-03-16T05:44:13.670Z,66.98
2023-03-16T05:46:57.143Z,67.69
2023-03-16T05:49:24.929Z,67.40
2023-03-16T05:51:52.012Z,66.57
2023-03-16T05:54:19.171Z,67.26
2023-03-16T05:56:47.977Z,67.83
2023-03-16T05:59:20.523Z,67.51
2023-03-16T06:01:54.167Z,67.53
2023-03-16T06:04:22.231Z,66.99
2023-03-16T06:06:49.722Z,67.07
2023-03-16T06:09:21.388Z,66.80
2023-03-16T06:11:48.655Z,66.74
2023-03-16T06:14:17.500Z,66.76
2023-03-16T06:16:45.402Z,67.07
2023-03-16T06:19:13.591Z,67.32
2023-03-16T06:21:41.398Z,66.97
2023-03-16T06:24:10.504Z,67.57
2023-03-16T06:26:37.638Z,68.38
2023-03-16T06:29:08.216Z,68.39
2023-03-16T06:31:37.868Z,68.49
2023-03-16T06:34:05.773Z,68.17
2023-03-16T06:36:34.105Z,68.07
2023-03-16T06:39:04.559Z,68.44
2023-03-16T06:41:39.265Z,68.01
2023-03-16T06:44:06.463Z,68.94
2023-03-16T06:46:38.451Z,68.43
2023-03-16T06:49:05.618Z,69.02
2023-03-16T06:51:33.210Z,68.98
2023-03-16T06:54:01.677Z,68.49
2023-03-16T06:56:31.842Z,68.72
2023-03-16T06:58:59.319Z,69.81
2023-03-16T07:01:26.833Z,69.87
2023-03-16T07:03:54.882Z,69.94
2023-03-16T07:06:28.362Z,69.49
2023-03-16T07:08:55.434Z,69.62
2023-03-16T07:11:23.594Z,68.97
2023-03-16T07:13:51.842Z,68.27
2023-03-16T07:16:22.165Z,68.32
2023-03-16T07:18:50.152Z,68.29
2023-03-16T07:21:19.802Z,67.23
2023-03-16T07:23:48.365Z,67.89
2023-03-16T07:26:20.967Z,67.62
2023-03-16T07:28:53.286Z,66.81
2023-03-16T07:31:20.688Z,67.62
2023-03-16T07:33:48.582Z,67.60
2023-03-16T07:36:24.665Z,67.46
2023-03-16T07:38:56.455Z,67.90
2023-03-16T07:41:24.747Z,67.13
2023-03-16T07:43:51.947Z,67.41
2023-03-16T07:46:19.813Z,67.45
2023-03-16T07:48:46.860Z,67.85
2023-03-16T07:51:14.435Z,67.42
2023-03-16T07:53:45.581Z,66.76
2023-03-16T07:56:20.294Z,66.31
2023-03-16T07:58:52.130Z,66.26
2023-03-16T08:01:19.766Z,65.18
2023-03-16T08:03:49.521Z,63.43
2023-03-16T08:06:17.723Z,63.31
2023-03-16T08:08:44.864Z,63.07
2023-03-16T08:11:25.639Z,63.76
2023-03-16T08:14:00.015Z,63.60
2023-03-16T08:16:42.441Z,63.15
2023-03-16T08:19:11.557Z,63.70
2023-03-16T08:21:53.107Z,63.73
2023-03-16T08:24:29.734Z,63.50
2023-03-16T08:26:58.910Z,64.36
2023-03-16T08:29:26.904Z,63.92
2023-03-16T08:31:56.415Z,64.37
2023-03-16T08:34:31.919Z,63.66
2023-03-16T08:36:59.925Z,63.92
2023-03-16T08:39:27.455Z,64.45
2023-03-16T08:41:55.255Z,63.65
2023-03-16T08:44:36.379Z,64.13
2023-03-16T08:47:05.232Z,63.70
2023-03-16T08:49:34.993Z,62.99
2023-03-16T08:52:10.463Z,63.33
2023-03-16T08:54:37.539Z,62.99
2023-03-16T08:57:04.975Z,62.82
2023-03-16T08:59:31.934Z,62.91
2023-03-16T09:01:59.157Z,63.40
2023-03-16T09:04:28.464Z,63.00
2023-03-16T09:07:07.857Z,62.63
2023-03-16T09:09:36.379Z,62.77
2023-03-16T09:12:04.434Z,62.63
2023-03-16T09:14:32.097Z,62.43
2023-03-16T09:16:59.717Z,61.97
2023-03-16T09:19:29.106Z,62.50
2023-03-16T09:21:58.834Z,61.87
2023-03-16T09:24:26.220Z,61.93
2023-03-16T09:26:53.264Z,62.04
2023-03-16T09:29:21.423Z,60.93
2023-03-16T09:31:48.530Z,60.90
2023-03-16T09:34:16.454Z,60.87
2023-03-16T09:36:43.346Z,60.91
2023-03-16T09:39:11.891Z,60.96
2023-03-16T09:41:56.656Z,60.43
2023-03-16T09:44:48.762Z,61.65
2023-03-16T09:47:17.120Z,61.07
2023-03-16T09:49:48.406Z,61.70
2023-03-16T09:52:58.775Z,61.68
2023-03-16T09:55:38.146Z,60.57
2023-03-16T09:58:16.578Z,59.60
2023-03-16T10:01:32.509Z,58.92
2023-03-16T10:04:46.246Z,59.06
2023-03-16T10:07:30.421Z,57.00
2023-03-16T10:10:05.780Z,56.38
2023-03-16T10:12:43.582Z,56.54
2023-03-16T10:15:16.522Z,56.76
2023-03-16T10:17:47.721Z,56.46
2023-03-16T10:20:20.784Z,56.37
2023-03-16T10:22:53.143Z,55.29
2023-03-16T10:25:39.495Z,55.77
2023-03-16T10:28:06.473Z,55.99
2023-03-16T10:30:38.707Z,55.48
2023-03-16T10:33:23.571Z,55.67
2023-03-16T10:36:15.745Z,55.20
2023-03-16T10:39:00.113Z,54.11
2023-03-16T10:41:38.422Z,53.90
2023-03-16T10:44:17.554Z,53.79
2023-03-16T10:46:51.151Z,53.17
2023-03-16T10:49:29.666Z,52.64
2023-03-16T10:51:59.718Z,52.74
2023-03-16T10:54:35.530Z,51.59
2023-03-16T10:57:25.589Z,50.56
2023-03-16T10:59:57.738Z,50.72
2023-03-16T11:02:34.189Z,49.34
2023-03-16T11:05:19.647Z,48.95
2023-03-16T11:08:14.832Z,49.23
2023-03-16T11:10:55.585Z,48.83
2023-03-16T11:13:31.318Z,48.61
2023-03-16T11:16:24.822Z,47.93
2023-03-16T11:18:58.535Z,47.33
2023-03-16T11:21:57.188Z,47.88
2023-03-16T11:25:09.743Z,47.91
2023-03-16T11:27:54.378Z,44.30
2023-03-16T11:30:49.749Z,42.55
2023-03-16T11:33:16.820Z,43.73
2023-03-16T11:36:21.425Z,44.35
2023-03-16T11:39:12.819Z,43.63
2023-03-16T11:42:39.121Z,44.79
2023-03-16T11:45:24.134Z,44.31
2023-03-16T11:48:15.471Z,42.01
2023-03-16T11:51:22.727Z,42.92
2023-03-16T11:54:43.345Z,40.40
2023-03-16T11:57:43.156Z,41.36
2023-03-16T12:00:52.491Z,41.75
2023-03-16T12:03:47.917Z,42.11
2023-03-16T12:06:42.483Z,40.27
2023-03-16T12:09:24.732Z,40.96
2023-03-16T12:12:17.282Z,41.19
2023-03-16T12:15:30.351Z,40.08
2023-03-16T12:18:30.405Z,40.77
2023-03-16T12:21:44.813Z,40.00
2023-03-16T12:24:19.258Z,39.14
2023-03-16T12:26:49.533Z,38.40
2023-03-16T12:29:35.830Z,35.40
2023-03-16T12:32:25.869Z,37.85
2023-03-16T12:35:17.756Z,39.02
2023-03-16T12:38:19.284Z,39.14
2023-03-16T12:41:12.463Z,39.16
2023-03-16T12:44:04.340Z,38.45
2023-03-16T12:46:39.028Z,38.80
2023-03-16T12:49:08.063Z,38.44
2023-03-16T12:51:43.951Z,37.01
2023-03-16T12:54:24.131Z,37.42
2023-03-16T12:56:56.167Z,37.45
2023-03-16T12:59:25.780Z,37.79
2023-03-16T13:01:58.665Z,36.14
2023-03-16T13:04:41.762Z,36.02
2023-03-16T13:07:21.614Z,36.15
2023-03-16T13:09:57.211Z,33.38
2023-03-16T13:12:30.948Z,31.43
2023-03-16T13:14:59.069Z,32.75
2023-03-16T13:17:32.664Z,32.33
2023-03-16T13:20:04.761Z,33.71
2023-03-16T13:22:47.972Z,34.37
2023-03-16T13:25:45.533Z,33.53
2023-03-16T13:28:17.635Z,34.86
2023-03-16T13:30:49.629Z,33.78
2023-03-16T13:33:22.459Z,34.61
2023-03-16T13:35:52.494Z,33.96
2023-03-16T13:38:27.311Z,34.30
2023-03-16T13:41:10.534Z,34.73
2023-03-16T13:43:44.217Z,34.98
2023-03-16T13:46:21.406Z,34.58
2023-03-16T13:48:50.427Z,33.47
2023-03-16T13:51:22.815Z,32.93
2023-03-16T13:53:51.413Z,32.44
2023-03-16T13:56:26.961Z,32.63
2023-03-16T13:58:57.285Z,31.33
2023-03-16T14:01:32.260Z,32.88
2023-03-16T14:04:09.964Z,32.54
2023-03-16T14:06:38.484Z,33.19
2023-03-16T14:09:14.073Z,32.79
2023-03-16T14:11:42.965Z,33.34
2023-03-16T14:14:30.882Z,32.96
2023-03-16T14:17:12.537Z,33.28
2023-03-16T14:19:47.250Z,32.72
2023-03-16T14:22:23.915Z,30.97
2023-03-16T14:24:59.153Z,30.76
2023-03-16T14:27:41.564Z,29.60
2023-03-16T14:30:19.590Z,29.93
2023-03-16T14:33:02.257Z,29.91
2023-03-16T14:35:44.365Z,30.65
2023-03-16T14:38:36.220Z,31.39
2023-03-16T14:41:26.370Z,31.04
2023-03-16T14:44:01.545Z,31.84
2023-03-16T14:46:33.302Z,31.67
2023-03-16T14:49:20.385Z,31.73
2023-03-16T14:51:51.448Z,31.78
2023-03-16T14:54:24.357Z,31.28
2023-03-16T14:56:54.634Z,30.36
2023-03-16T14:59:22.470Z,30.22
2023-03-16T15:01:51.186Z,30.66
2023-03-16T15:04:27.949Z,30.17
2023-03-16T15:06:55.438Z,30.43
2023-03-16T15:09:40.264Z,31.16
2023-03-16T15:12:19.856Z,31.25
2023-03-16T15:15:06.285Z,31.39
2023-03-16T15:17:33.668Z,31.41
2023-03-16T15:20:01.228Z,31.35
2023-03-16T15:22:36.053Z,31.73
2023-03-16T15:25:37.659Z,32.10
2023-03-16T15:28:19.534Z,32.14
2023-03-16T15:30:55.891Z,32.14
2023-03-16T15:33:24.587Z,32.50
2023-03-16T15:35:55.709Z,32.38
2023-03-16T15:38:29.408Z,31.99
2023-03-16T15:40:56.882Z,32.17
2023-03-16T15:43:28.799Z,32.16
2023-03-16T15:45:58.833Z,32.50
2023-03-16T15:48:27.189Z,31.95
2023-03-16T15:51:00.707Z,30.99
2023-03-16T15:53:40.919Z,32.15
2023-03-16T15:56:12.231Z,32.40
2023-03-16T15:58:42.858Z,32.11
2023-03-16T16:01:22.492Z,32.32
2023-03-16T16:03:54.083Z,32.70
2023-03-16T16:06:22.256Z,33.13
2023-03-16T16:08:49.285Z,32.52
2023-03-16T16:11:22.480Z,33.02
2023-03-16T16:13:50.483Z,33.18
2023-03-16T16:16:19.816Z,32.64
2023-03-16T16:18:48.386Z,33.50
2023-03-16T16:21:23.349Z,33.58
2023-03-16T16:23:52.239Z,33.84
2023-03-16T16:26:51.658Z,34.58
2023-03-16T16:29:23.981Z,34.51
2023-03-16T16:31:52.378Z,34.36
2023-03-16T16:34:24.803Z,34.72
2023-03-16T16:36:53.682Z,35.11
2023-03-16T16:39:21.991Z,34.46
2023-03-16T16:41:52.069Z,35.19
2023-03-16T16:44:31.447Z,35.17
2023-03-16T16:47:00.072Z,35.26
2023-03-16T16:49:31.103Z,35.67
2023-03-16T16:51:59.210Z,35.06
2023-03-16T16:54:31.245Z,35.87
2023-03-16T16:57:00.799Z,35.94
2023-03-16T16:59:37.542Z,36.19
2023-03-16T17:02:23.420Z,35.70
2023-03-16T17:04:50.953Z,35.66
2023-03-16T17:07:18.141Z,35.26
2023-03-16T17:09:45.197Z,35.80
2023-03-16T17:12:23.447Z,36.33
2023-03-16T17:14:51.286Z,36.59
2023-03-16T17:17:18.905Z,36.64
2023-03-16T17:19:48.235Z,36.86
2023-03-16T17:22:30.279Z,37.19
2023-03-16T17:24:57.549Z,36.99
2023-03-16T17:27:29.193Z,36.88
2023-03-16T17:29:57.746Z,36.91
2023-03-16T17:32:25.035Z,37.05
2023-03-16T17:34:52.448Z,36.75
2023-03-16T17:37:22.289Z,37.44
2023-03-16T17:39:49.652Z,37.43
2023-03-16T17:42:19.914Z,37.60
2023-03-16T17:44:52.265Z,38.29
2023-03-16T17:47:23.938Z,38.01
2023-03-16T17:49:51.901Z,37.79
2023-03-16T17:52:25.911Z,38.10
2023-03-16T17:54:54.699Z,37.46
2023-03-16T17:57:32.369Z,38.62
2023-03-16T18:00:32.260Z,38.35
2023-03-16T18:03:12.200Z,38.85
2023-03-16T18:05:40.126Z,39.09
2023-03-16T18:08:28.801Z,39.60
2023-03-16T18:11:07.214Z,38.92
2023-03-16T18:13:37.596Z,39.20
2023-03-16T18:16:07.089Z,40.02
2023-03-16T18:18:39.626Z,39.79
2023-03-16T18:21:08.897Z,39.63
2023-03-16T18:23:36.928Z,39.55
2023-03-16T18:26:04.182Z,39.97
2023-03-16T18:28:31.445Z,40.48
2023-03-16T18:31:00.642Z,39.91
2023-03-16T18:33:36.518Z,40.06
2023-03-16T18:36:16.585Z,40.82
2023-03-16T18:38:47.451Z,40.15
2023-03-16T18:41:19.725Z,41.23
2023-03-16T18:43:47.485Z,40.88
2023-03-16T18:46:36.317Z,41.10
2023-03-16T18:49:13.184Z,40.81
2023-03-16T18:51:43.146Z,41.14
2023-03-16T18:54:27.189Z,40.78
2023-03-16T18:56:54.904Z,40.79
2023-03-16T18:59:22.233Z,41.17
2023-03-16T19:01:49.505Z,41.00
2023-03-16T19:04:26.626Z,41.15
2023-03-16T19:06:56.468Z,41.54
2023-03-16T19:09:30.222Z,42.06
2023-03-16T19:11:59.043Z,41.21
2023-03-16T19:14:30.950Z,42.26
2023-03-16T19:16:58.262Z,42.46
2023-03-16T19:19:27.149Z,42.70
2023-03-16T19:21:58.871Z,42.03
2023-03-16T19:24:35.108Z,42.70
2023-03-16T19:27:02.302Z,42.83
2023-03-16T19:29:33.739Z,43.21
2023-03-16T19:32:01.494Z,43.55
2023-03-16T19:34:29.313Z,42.99
2023-03-16T19:36:56.785Z,43.21
2023-03-16T19:39:24.227Z,43.53
2023-03-16T19:41:58.288Z,43.74
2023-03-16T19:44:27.218Z,44.14
2023-03-16T19:46:57.257Z,43.76
2023-03-16T19:49:27.235Z,43.42
2023-03-16T19:51:55.801Z,43.72
2023-03-16T19:54:33.686Z,43.54
2023-03-16T19:57:11.400Z,44.36
2023-03-16T19:59:38.679Z,43.94
2023-03-16T20:02:37.579Z,44.36
2023-03-16T20:05:05.807Z,43.85
2023-03-16T20:07:37.975Z,43.49
2023-03-16T20:10:10.333Z,44.53
2023-03-16T20:12:41.738Z,44.17
2023-03-16T20:15:20.065Z,44.55
2023-03-16T20:17:49.456Z,44.40
2023-03-16T20:20:25.450Z,44.98
2023-03-16T20:22:55.780Z,43.93
2023-03-16T20:25:24.858Z,44.38
2023-03-16T20:27:57.049Z,44.81
2023-03-16T20:30:24.451Z,44.07
2023-03-16T20:32:52.112Z,43.95
2023-03-16T20:35:28.422Z,44.87
2023-03-16T20:37:56.461Z,44.36
2023-03-16T20:40:24.308Z,44.71
2023-03-16T20:42:52.327Z,45.17
2023-03-16T20:45:25.816Z,44.36
2023-03-16T20:47:53.695Z,44.56
2023-03-16T20:50:24.303Z,44.67
2023-03-16T20:52:51.715Z,44.93
2023-03-16T20:55:22.984Z,45.15
2023-03-16T20:57:52.291Z,45.59
2023-03-16T21:00:35.435Z,45.02
2023-03-16T21:03:17.030Z,44.73
2023-03-16T21:05:46.085Z,45.02
2023-03-16T21:08:14.901Z,46.19
2023-03-16T21:10:45.560Z,45.43
2023-03-16T21:13:40.537Z,45.86
2023-03-16T21:16:10.732Z,45.76
2023-03-16T21:18:38.135Z,45.08
2023-03-16T21:21:05.481Z,45.98
2023-03-16T21:23:32.518Z,44.86
2023-03-16T21:26:03.754Z,44.86
2023-03-16T21:28:34.641Z,45.72
2023-03-16T21:31:03.024Z,46.11
2023-03-16T21:33:35.022Z,45.55
2023-03-16T21:36:04.979Z,45.60
2023-03-16T21:38:32.835Z,46.12
2023-03-16T21:41:01.158Z,45.95
2023-03-16T21:43:28.648Z,46.06
2023-03-16T21:45:57.047Z,46.40
2023-03-16T21:48:36.618Z,46.36
2023-03-16T21:51:11.187Z,46.22
2023-03-16T21:53:38.470Z,46.30
2023-03-16T21:56:15.463Z,45.43
2023-03-16T21:58:47.266Z,45.46
2023-03-16T22:01:24.930Z,45.81
2023-03-16T22:04:16.746Z,45.62
2023-03-16T22:06:45.421Z,46.32
2023-03-16T22:09:22.512Z,46.40
2023-03-16T22:11:49.960Z,46.13
2023-03-16T22:14:17.067Z,45.63
2023-03-16T22:16:44.324Z,46.37
2023-03-16T22:19:14.796Z,46.34
2023-03-16T22:21:44.684Z,46.37
2023-03-16T22:24:19.121Z,45.82
2023-03-16T22:26:46.891Z,45.87
2023-03-16T22:29:23.533Z,45.93
2023-03-16T22:31:55.408Z,45.49
2023-03-16T22:34:44.686Z,45.96
2023-03-16T22:37:17.602Z,45.99
2023-03-16T22:39:44.960Z,46.41
2023-03-16T22:42:33.904Z,46.49
2023-03-16T22:45:01.174Z,46.77
2023-03-16T22:47:35.296Z,47.51
2023-03-16T22:50:02.460Z,47.74
2023-03-16T22:52:33.740Z,47.81
2023-03-16T22:55:03.905Z,48.40
2023-03-16T22:57:31.714Z,48.17
2023-03-16T23:00:01.075Z,48.44
2023-03-16T23:02:29.255Z,48.66
2023-03-16T23:04:56.359Z,48.40
2023-03-16T23:07:23.515Z,49.05
2023-03-16T23:09:50.562Z,48.86
2023-03-16T23:12:21.298Z,49.45
2023-03-16T23:14:48.692Z,49.40
2023-03-16T23:17:22.351Z,49.67
2023-03-16T23:19:49.682Z,49.69
2023-03-16T23:22:17.019Z,50.04
2023-03-16T23:24:44.189Z,50.07
2023-03-16T23:27:20.199Z,50.16
2023-03-16T23:29:47.521Z,50.22
2023-03-16T23:32:17.103Z,50.03
2023-03-16T23:34:44.675Z,50.67
2023-03-16T23:37:12.771Z,50.41
2023-03-16T23:39:40.033Z,50.02
2023-03-16T23:42:07.598Z,50.72
2023-03-16T23:44:35.859Z,50.76
2023-03-16T23:47:03.045Z,50.90
2023-03-16T23:49:32.889Z,50.56
2023-03-16T23:52:01.791Z,51.06
2023-03-16T23:54:31.844Z,50.80
2023-03-16T23:56:59.239Z,50.79
2023-03-16T23:59:27.821Z,50.56
